createdAt,value
2023-03-26T00:02:00.479Z,11.40
2023-03-26T00:04:28.051Z,11.50
2023-03-26T00:06:55.840Z,11.00
2023-03-26T00:09:23.057Z,11.40
2023-03-26T00:11:50.229Z,11.40
2023-03-26T00:14:17.907Z,11.20
2023-03-26T00:16:45.579Z,10.80
2023-03-26T00:19:12.814Z,10.60
2023-03-26T00:21:40.032Z,10.10
2023-03-26T00:24:08.763Z,10.20
2023-03-26T00:26:37.537Z,10.00
2023-03-26T00:29:04.802Z,10.40
2023-03-26T00:31:31.940Z,10.30
2023-03-26T00:33:59.510Z,10.10
2023-03-26T00:36:26.902Z,10.20
2023-03-26T00:38:54.465Z,10.60
2023-03-26T00:41:25.640Z,10.40
2023-03-26T00:43:56.008Z,10.40
2023-03-26T00:46:23.827Z,10.40
2023-03-26T00:48:50.971Z,10.60
2023-03-26T00:51:18.542Z,10.50
2023-03-26T00:53:46.494Z,10.50
2023-03-26T00:56:13.739Z,10.70
2023-03-26T00:58:41.339Z,11.20
2023-03-26T01:01:10.114Z,10.90
2023-03-26T01:03:38.390Z,11.30
2023-03-26T01:06:11.527Z,11.20
2023-03-26T01:08:39.918Z,11.50
2023-03-26T01:11:14.238Z,11.30
2023-03-26T01:13:48.699Z,11.50
2023-03-26T01:16:20.416Z,11.30
2023-03-26T01:18:48.783Z,11.70
2023-03-26T01:21:22.464Z,11.30
2023-03-26T01:24:09.821Z,11.00
2023-03-26T01:26:43.552Z,11.40
2023-03-26T01:29:13.026Z,11.20
2023-03-26T01:32:03.501Z,11.40
2023-03-26T01:34:49.563Z,11.10
2023-03-26T01:37:30.456Z,11.70
2023-03-26T01:39:57.681Z,11.90
2023-03-26T01:42:29.930Z,11.80
2023-03-26T01:44:58.057Z,11.90
2023-03-26T01:47:25.254Z,11.70
2023-03-26T01:49:52.397Z,11.40
2023-03-26T01:58:56.191Z,12.00
2023-03-26T02:08:16.181Z,11.80
2023-03-26T02:10:58.318Z,11.60
2023-03-26T02:13:46.130Z,11.40
2023-03-26T02:16:23.927Z,11.40
2023-03-26T02:19:01.401Z,11.00
2023-03-26T02:21:34.323Z,11.30
2023-03-26T02:24:05.262Z,11.20
2023-03-26T02:26:44.202Z,11.50
2023-03-26T02:29:21.726Z,11.40
2023-03-26T02:31:56.249Z,11.10
2023-03-26T02:34:30.412Z,11.30
2023-03-26T02:36:57.708Z,11.20
2023-03-26T02:39:25.039Z,10.70
2023-03-26T02:41:52.160Z,10.60
2023-03-26T02:44:19.267Z,11.20
2023-03-26T02:46:46.415Z,11.40
2023-03-26T02:49:13.520Z,11.50
2023-03-26T02:51:40.723Z,11.50
2023-03-26T02:54:07.860Z,11.80
2023-03-26T02:56:35.193Z,11.80
2023-03-26T02:59:02.349Z,11.30
2023-03-26T03:01:30.869Z,11.30
2023-03-26T03:03:58.410Z,11.90
2023-03-26T03:06:26.496Z,11.70
2023-03-26T03:08:54.017Z,11.50
2023-03-26T03:11:24.982Z,11.00
2023-03-26T03:13:52.521Z,11.20
2023-03-26T03:16:20.132Z,11.30
2023-03-26T03:18:54.144Z,11.50
2023-03-26T03:21:21.863Z,11.40
2023-03-26T03:23:49.032Z,11.30
2023-03-26T03:26:17.405Z,11.10
2023-03-26T03:28:45.244Z,11.60
2023-03-26T03:31:12.394Z,11.70
2023-03-26T03:33:41.379Z,11.90
2023-03-26T03:36:20.603Z,11.90
2023-03-26T03:38:49.205Z,11.70
2023-03-26T03:41:18.394Z,11.30
2023-03-26T03:43:45.669Z,11.60
2023-03-26T03:46:12.957Z,11.30
2023-03-26T03:48:40.124Z,11.60
2023-03-26T03:51:07.250Z,11.60
2023-03-26T03:53:37.110Z,11.50
2023-03-26T03:56:10.004Z,11.70
2023-03-26T03:58:37.291Z,11.80
2023-03-26T04:01:04.668Z,12.00
2023-03-26T04:03:33.635Z,12.00
2023-03-26T04:06:01.632Z,11.80
2023-03-26T04:08:28.731Z,11.70
2023-03-26T04:10:55.908Z,11.70
2023-03-26T04:13:23.046Z,11.80
2023-03-26T04:15:50.293Z,11.90
2023-03-26T04:18:17.409Z,11.30
2023-03-26T04:20:47.648Z,11.50
2023-03-26T04:23:18.175Z,11.60
2023-03-26T04:25:48.325Z,11.50
2023-03-26T04:28:35.748Z,12.00
2023-03-26T04:31:03.818Z,11.80
2023-03-26T04:33:31.790Z,11.80
2023-03-26T04:36:02.606Z,11.30
2023-03-26T04:38:30.274Z,11.70
2023-03-26T04:41:00.519Z,11.90
2023-03-26T04:43:30.241Z,12.00
2023-03-26T04:45:57.437Z,11.80
2023-03-26T04:48:24.698Z,11.80
2023-03-26T04:50:51.821Z,11.80
2023-03-26T04:53:19.357Z,12.00
2023-03-26T04:56:05.455Z,11.80
2023-03-26T04:58:33.094Z,11.80
2023-03-26T05:01:01.172Z,11.80
2023-03-26T05:03:41.093Z,11.60
2023-03-26T05:06:09.621Z,11.50
2023-03-26T05:08:36.738Z,11.70
2023-03-26T05:11:07.390Z,11.70
2023-03-26T05:13:34.547Z,11.20
2023-03-26T05:16:01.680Z,11.20
2023-03-26T05:18:28.754Z,11.20
2023-03-26T05:20:57.406Z,11.30
2023-03-26T05:23:24.645Z,10.70
2023-03-26T05:25:51.981Z,10.30
2023-03-26T05:28:20.671Z,10.70
2023-03-26T05:30:47.845Z,10.90
2023-03-26T05:33:16.321Z,10.80
2023-03-26T05:35:43.605Z,10.60
2023-03-26T05:38:10.886Z,10.60
2023-03-26T05:40:37.988Z,10.90
2023-03-26T05:43:05.189Z,10.60
2023-03-26T05:45:32.271Z,10.70
2023-03-26T05:47:59.394Z,10.60
2023-03-26T05:50:26.501Z,10.90
2023-03-26T05:52:53.578Z,11.00
2023-03-26T05:55:21.967Z,10.90
2023-03-26T05:57:49.097Z,10.90
2023-03-26T06:00:16.378Z,11.10
2023-03-26T06:02:44.134Z,11.10
2023-03-26T06:05:12.426Z,11.30
2023-03-26T06:07:39.582Z,11.50
2023-03-26T06:10:06.940Z,11.20
2023-03-26T06:12:34.051Z,11.50
2023-03-26T06:15:01.219Z,11.40
2023-03-26T06:17:28.340Z,11.20
2023-03-26T06:19:55.426Z,11.60
2023-03-26T06:22:22.551Z,11.80
2023-03-26T06:24:50.241Z,11.50
2023-03-26T06:27:17.366Z,11.00
2023-03-26T06:29:44.446Z,11.00
2023-03-26T06:32:19.811Z,10.80
2023-03-26T06:34:47.668Z,10.60
2023-03-26T06:37:15.507Z,11.00
2023-03-26T06:39:42.630Z,10.70
2023-03-26T06:42:09.712Z,10.40
2023-03-26T06:44:36.794Z,11.40
2023-03-26T06:47:03.889Z,10.80
2023-03-26T06:49:31.396Z,11.10
2023-03-26T06:51:58.646Z,11.40
2023-03-26T06:54:27.527Z,10.90
2023-03-26T06:56:54.819Z,11.10
2023-03-26T06:59:22.091Z,11.10
2023-03-26T07:01:49.213Z,10.50
2023-03-26T07:04:16.362Z,10.40
2023-03-26T07:06:43.490Z,10.80
2023-03-26T07:09:10.586Z,10.80
2023-03-26T07:11:37.734Z,11.30
2023-03-26T07:14:04.861Z,11.40
2023-03-26T07:16:32.057Z,11.20
2023-03-26T07:18:59.161Z,11.30
2023-03-26T07:21:26.464Z,10.50
2023-03-26T07:23:55.093Z,11.10
2023-03-26T07:26:31.463Z,10.50
2023-03-26T07:29:07.735Z,10.40
2023-03-26T07:31:49.951Z,10.20
2023-03-26T07:34:17.047Z,10.20
2023-03-26T07:36:48.346Z,10.10
2023-03-26T07:39:15.556Z,10.10
2023-03-26T07:41:42.684Z,9.90
2023-03-26T07:44:22.473Z,10.00
2023-03-26T07:46:53.264Z,10.10
2023-03-26T07:49:20.553Z,9.80
2023-03-26T07:51:48.142Z,9.70
2023-03-26T07:54:15.395Z,9.80
2023-03-26T07:57:02.024Z,9.80
2023-03-26T07:59:35.569Z,10.00
2023-03-26T08:02:25.115Z,9.90
2023-03-26T08:05:18.837Z,9.90
2023-03-26T08:07:55.323Z,9.90
2023-03-26T08:10:24.064Z,9.90
2023-03-26T08:12:53.536Z,9.90
2023-03-26T08:15:29.311Z,10.00
2023-03-26T08:18:02.632Z,10.00
2023-03-26T08:20:38.141Z,10.20
2023-03-26T08:23:12.155Z,10.30
2023-03-26T08:25:54.543Z,10.10
2023-03-26T08:28:27.813Z,10.20
2023-03-26T08:30:55.335Z,10.30
2023-03-26T08:33:22.958Z,10.10
2023-03-26T08:35:50.126Z,10.10
2023-03-26T08:38:18.315Z,10.70
2023-03-26T08:40:48.476Z,11.10
2023-03-26T08:43:34.440Z,11.00
2023-03-26T08:46:21.561Z,11.30
2023-03-26T08:49:07.355Z,11.70
2023-03-26T08:52:00.206Z,11.60
2023-03-26T08:54:34.547Z,11.30
2023-03-26T08:57:01.637Z,11.90
2023-03-26T08:59:34.855Z,11.20
2023-03-26T09:02:08.454Z,11.80
2023-03-26T09:04:50.901Z,11.20
2023-03-26T09:07:28.711Z,11.80
2023-03-26T09:10:06.915Z,11.00
2023-03-26T09:12:50.338Z,11.10
2023-03-26T09:15:35.981Z,11.40
2023-03-26T09:18:21.476Z,11.20
2023-03-26T09:21:14.830Z,11.40
2023-03-26T09:23:51.837Z,11.30
2023-03-26T09:26:28.943Z,11.50
2023-03-26T09:28:56.081Z,11.10
2023-03-26T09:31:34.352Z,11.10
2023-03-26T09:34:12.708Z,11.20
2023-03-26T09:36:58.729Z,11.90
2023-03-26T09:39:39.024Z,11.40
2023-03-26T09:42:24.461Z,11.90
2023-03-26T09:45:03.752Z,12.20
2023-03-26T09:47:43.186Z,12.20
2023-03-26T09:50:22.758Z,12.00
2023-03-26T09:53:08.623Z,11.70
2023-03-26T09:55:35.817Z,11.70
2023-03-26T09:58:06.145Z,10.80
2023-03-26T10:00:38.814Z,10.60
2023-03-26T10:03:26.415Z,11.00
2023-03-26T10:06:02.915Z,11.20
2023-03-26T10:08:32.538Z,11.00
2023-03-26T10:11:02.936Z,11.20
2023-03-26T10:13:32.515Z,11.10
2023-03-26T10:16:06.052Z,11.00
2023-03-26T10:18:39.558Z,11.60
2023-03-26T10:21:09.789Z,12.40
2023-03-26T10:23:39.850Z,11.60
2023-03-26T10:26:14.344Z,12.10
2023-03-26T10:28:41.440Z,11.50
2023-03-26T10:31:19.220Z,11.60
2023-03-26T10:33:52.598Z,12.80
2023-03-26T10:36:26.827Z,12.50
2023-03-26T10:39:03.668Z,12.70
2023-03-26T10:41:38.707Z,13.10
2023-03-26T10:44:15.018Z,13.40
2023-03-26T10:46:42.196Z,13.80
2023-03-26T10:49:18.574Z,14.10
2023-03-26T10:51:48.670Z,13.10
2023-03-26T10:54:21.709Z,14.10
2023-03-26T10:56:49.879Z,14.40
2023-03-26T10:59:17.451Z,14.40
2023-03-26T11:02:03.616Z,13.90
2023-03-26T11:04:30.826Z,14.60
2023-03-26T11:07:13.298Z,14.50
2023-03-26T11:09:43.550Z,14.20
2023-03-26T11:12:26.836Z,13.80
2023-03-26T11:15:01.447Z,14.00
2023-03-26T11:17:43.583Z,14.70
2023-03-26T11:20:13.586Z,14.90
2023-03-26T11:23:03.829Z,15.10
2023-03-26T11:25:49.732Z,14.80
2023-03-26T11:28:23.867Z,14.60
2023-03-26T11:31:16.087Z,13.90
2023-03-26T11:34:18.448Z,14.80
2023-03-26T11:37:15.088Z,14.10
2023-03-26T11:40:14.225Z,14.00
2023-03-26T11:43:04.987Z,12.90
2023-03-26T11:49:16.708Z,12.80
2023-03-26T11:52:15.745Z,13.90
2023-03-26T11:55:13.059Z,13.70
2023-03-26T11:58:13.332Z,13.80
2023-03-26T12:00:40.434Z,13.40
2023-03-26T12:03:07.557Z,13.50
2023-03-26T12:05:36.715Z,13.00
2023-03-26T12:08:11.209Z,12.40
2023-03-26T12:10:39.060Z,11.90
2023-03-26T12:13:21.620Z,11.60
2023-03-26T12:15:48.701Z,11.80
2023-03-26T12:18:26.047Z,11.70
2023-03-26T12:21:22.674Z,11.50
2023-03-26T12:23:58.641Z,11.80
2023-03-26T12:26:34.833Z,11.50
2023-03-26T12:29:07.312Z,11.50
2023-03-26T12:31:46.868Z,11.10
2023-03-26T12:34:15.388Z,11.10
2023-03-26T12:36:49.068Z,11.10
2023-03-26T12:40:08.827Z,11.10
2023-03-26T12:44:50.754Z,11.70
2023-03-26T12:45:20.014Z,11.20
2023-03-26T12:48:01.836Z,11.30
2023-03-26T12:50:40.709Z,11.10
2023-03-26T12:53:26.461Z,11.30
2023-03-26T12:56:01.294Z,11.30
2023-03-26T12:58:32.310Z,11.10
2023-03-26T13:01:02.977Z,11.20
2023-03-26T13:03:31.184Z,11.10
2023-03-26T13:06:04.212Z,11.00
2023-03-26T13:08:50.201Z,11.00
2023-03-26T13:11:20.789Z,11.20
2023-03-26T13:13:56.347Z,11.40
2023-03-26T13:16:25.062Z,11.80
2023-03-26T13:18:58.169Z,11.30
2023-03-26T13:21:28.539Z,11.20
2023-03-26T13:24:01.738Z,11.20
2023-03-26T13:26:47.548Z,11.50
2023-03-26T13:29:24.188Z,11.40
2023-03-26T13:31:54.337Z,11.40
2023-03-26T13:34:22.559Z,11.50
2023-03-26T13:37:12.803Z,11.20
2023-03-26T13:39:56.954Z,11.20
2023-03-26T13:42:42.806Z,11.30
2023-03-26T13:45:13.151Z,11.70
2023-03-26T13:47:42.634Z,12.40
2023-03-26T13:50:21.838Z,12.10
2023-03-26T13:52:52.272Z,12.10
2023-03-26T13:55:22.429Z,11.90
2023-03-26T13:57:53.435Z,12.00
2023-03-26T14:00:26.590Z,11.80
2023-03-26T14:02:56.594Z,11.10
2023-03-26T14:05:25.766Z,8.40
2023-03-26T14:07:53.396Z,8.70
2023-03-26T14:10:22.353Z,8.40
2023-03-26T14:12:52.373Z,9.00
2023-03-26T14:15:21.999Z,9.10
2023-03-26T14:18:03.775Z,8.80
2023-03-26T14:20:40.198Z,8.30
2023-03-26T14:23:17.991Z,8.80
2023-03-26T14:25:48.147Z,9.20
2023-03-26T14:28:26.488Z,9.80
2023-03-26T14:30:56.557Z,9.00
2023-03-26T14:33:34.060Z,9.40
2023-03-26T14:36:07.390Z,9.50
2023-03-26T14:38:34.521Z,9.50
2023-03-26T14:41:06.355Z,9.90
2023-03-26T14:43:44.217Z,9.80
2023-03-26T14:46:14.443Z,10.00
2023-03-26T14:48:48.239Z,10.00
2023-03-26T14:51:24.816Z,9.30
2023-03-26T14:53:52.775Z,8.90
2023-03-26T14:56:30.152Z,8.70
2023-03-26T14:59:03.622Z,9.00
2023-03-26T15:01:40.127Z,9.20
2023-03-26T15:04:13.333Z,9.20
2023-03-26T15:06:41.049Z,9.40
2023-03-26T15:09:26.978Z,10.10
2023-03-26T15:12:12.685Z,9.60
2023-03-26T15:14:41.695Z,9.80
2023-03-26T15:17:09.549Z,9.80
2023-03-26T15:19:36.666Z,11.00
2023-03-26T15:22:04.312Z,10.60
2023-03-26T15:24:31.400Z,10.80
2023-03-26T15:27:08.275Z,10.30
2023-03-26T15:29:42.260Z,9.80
2023-03-26T15:32:16.176Z,9.70
2023-03-26T15:34:43.233Z,9.70
2023-03-26T15:37:27.351Z,9.10
2023-03-26T15:40:12.746Z,9.20
2023-03-26T15:42:55.185Z,9.60
2023-03-26T15:45:42.170Z,9.30
2023-03-26T15:48:12.612Z,9.90
2023-03-26T15:50:58.798Z,9.50
2023-03-26T15:53:44.731Z,9.50
2023-03-26T15:56:11.824Z,9.40
2023-03-26T15:58:50.766Z,9.30
2023-03-26T16:01:24.006Z,9.30
2023-03-26T16:03:54.621Z,9.40
2023-03-26T16:06:30.865Z,9.20
2023-03-26T16:09:07.955Z,9.30
2023-03-26T16:11:45.672Z,9.10
2023-03-26T16:14:31.611Z,8.90
2023-03-26T16:16:59.197Z,9.00
2023-03-26T16:19:32.507Z,8.80
2023-03-26T16:22:05.774Z,8.80
2023-03-26T16:24:37.129Z,8.80
2023-03-26T16:27:13.352Z,8.70
2023-03-26T16:29:59.627Z,8.80
2023-03-26T16:32:28.644Z,8.80
2023-03-26T16:35:00.301Z,8.80
2023-03-26T16:37:36.009Z,8.80
2023-03-26T16:40:18.606Z,8.60
2023-03-26T16:43:04.255Z,8.70
2023-03-26T16:45:37.122Z,8.60
2023-03-26T16:48:07.315Z,8.80
2023-03-26T16:50:34.994Z,8.50
2023-03-26T16:53:15.579Z,8.40
2023-03-26T16:55:54.934Z,8.40
2023-03-26T16:58:34.319Z,8.30
2023-03-26T17:01:07.535Z,8.20
2023-03-26T17:03:53.160Z,8.20
2023-03-26T17:06:20.891Z,8.20
2023-03-26T17:08:53.267Z,8.30
2023-03-26T17:11:22.256Z,8.20
2023-03-26T17:13:49.483Z,8.40
2023-03-26T17:16:19.793Z,8.80
2023-03-26T17:19:08.690Z,8.50
2023-03-26T17:21:55.474Z,8.10
2023-03-26T17:24:26.585Z,8.50
2023-03-26T17:27:01.614Z,8.20
2023-03-26T17:29:36.474Z,8.30
2023-03-26T17:32:04.573Z,8.50
2023-03-26T17:34:37.753Z,7.90
2023-03-26T17:37:05.733Z,8.60
2023-03-26T17:39:38.591Z,8.90
2023-03-26T17:42:08.745Z,7.50
2023-03-26T17:44:35.800Z,7.40
2023-03-26T17:47:02.923Z,7.40
2023-03-26T17:49:31.335Z,7.50
2023-03-26T17:51:59.489Z,8.10
2023-03-26T17:54:36.713Z,7.60
2023-03-26T17:57:06.046Z,7.80
2023-03-26T17:59:33.325Z,8.50
2023-03-26T18:02:01.217Z,8.70
2023-03-26T18:04:38.013Z,8.80
2023-03-26T18:07:25.083Z,8.60
2023-03-26T18:10:12.790Z,7.90
2023-03-26T18:12:50.872Z,7.90
2023-03-26T18:15:38.239Z,8.00
2023-03-26T18:18:13.765Z,8.10
2023-03-26T18:20:43.782Z,8.70
2023-03-26T18:23:11.409Z,9.10
2023-03-26T18:25:40.878Z,9.10
2023-03-26T18:28:10.298Z,8.90
2023-03-26T18:30:44.692Z,9.50
2023-03-26T18:33:12.586Z,9.50
2023-03-26T18:35:41.519Z,9.80
2023-03-26T18:38:12.945Z,9.80
2023-03-26T18:40:40.833Z,10.10
2023-03-26T18:43:19.612Z,10.10
2023-03-26T18:45:55.966Z,9.40
2023-03-26T18:48:23.509Z,9.60
2023-03-26T18:50:54.949Z,9.70
2023-03-26T18:53:23.406Z,9.30
2023-03-26T18:55:51.193Z,9.60
2023-03-26T18:58:35.502Z,9.40
2023-03-26T19:01:03.911Z,9.10
2023-03-26T19:03:32.110Z,9.20
2023-03-26T19:05:59.546Z,9.70
2023-03-26T19:08:26.659Z,9.50
2023-03-26T19:10:54.112Z,9.10
2023-03-26T19:13:21.544Z,9.00
2023-03-26T19:15:49.879Z,9.10
2023-03-26T19:18:17.994Z,10.00
2023-03-26T19:20:50.034Z,10.30
2023-03-26T19:23:21.602Z,10.20
2023-03-26T19:25:59.673Z,9.80
2023-03-26T19:28:42.843Z,9.00
2023-03-26T19:31:10.057Z,8.60
2023-03-26T19:33:37.779Z,8.40
2023-03-26T19:36:06.110Z,8.50
2023-03-26T19:38:44.242Z,8.30
2023-03-26T19:41:24.932Z,8.40
2023-03-26T19:43:56.181Z,8.20
2023-03-26T19:46:23.642Z,8.20
2023-03-26T19:48:52.432Z,8.30
2023-03-26T19:51:20.009Z,8.20
2023-03-26T19:53:55.016Z,7.90
2023-03-26T19:56:22.722Z,7.90
2023-03-26T19:58:52.897Z,9.00
2023-03-26T20:01:21.026Z,8.90
2023-03-26T20:03:49.205Z,8.70
2023-03-26T20:06:17.413Z,8.80
2023-03-26T20:08:44.601Z,9.00
2023-03-26T20:11:33.403Z,9.30
2023-03-26T20:14:01.288Z,8.90
2023-03-26T20:16:29.417Z,8.40
2023-03-26T20:18:57.227Z,8.50
2023-03-26T20:21:24.884Z,8.80
2023-03-26T20:23:53.656Z,8.30
2023-03-26T20:26:21.691Z,7.90
2023-03-26T20:28:53.291Z,7.80
2023-03-26T20:31:22.294Z,7.90
2023-03-26T20:33:49.857Z,7.80
2023-03-26T20:36:33.438Z,8.10
2023-03-26T20:39:05.630Z,7.90
2023-03-26T20:41:33.682Z,7.90
2023-03-26T20:44:01.031Z,8.30
2023-03-26T20:46:31.050Z,8.00
2023-03-26T20:48:59.866Z,8.10
2023-03-26T20:51:28.247Z,8.50
2023-03-26T20:53:56.169Z,9.00
2023-03-26T20:56:23.476Z,8.40
2023-03-26T20:59:03.512Z,8.20
2023-03-26T21:01:35.465Z,7.80
2023-03-26T21:04:04.242Z,7.90
2023-03-26T21:06:31.588Z,7.90
2023-03-26T21:08:58.886Z,8.00
2023-03-26T21:11:29.648Z,7.70
2023-03-26T21:14:15.656Z,7.90
2023-03-26T21:16:42.804Z,7.80
2023-03-26T21:19:13.025Z,7.60
2023-03-26T21:21:47.416Z,7.90
2023-03-26T21:24:17.965Z,7.50
2023-03-26T21:26:50.480Z,7.60
2023-03-26T21:29:17.822Z,7.60
2023-03-26T21:31:46.570Z,7.70
2023-03-26T21:34:13.977Z,8.00
2023-03-26T21:36:41.944Z,7.80
2023-03-26T21:39:10.902Z,7.90
2023-03-26T21:41:43.595Z,7.60
2023-03-26T21:44:10.883Z,7.90
2023-03-26T21:46:40.716Z,7.60
2023-03-26T21:49:07.877Z,7.70
2023-03-26T21:51:35.384Z,7.50
2023-03-26T21:54:02.572Z,7.60
2023-03-26T21:56:45.548Z,7.60
2023-03-26T21:59:25.602Z,7.40
2023-03-26T22:01:55.783Z,7.50
2023-03-26T22:04:46.156Z,7.40
2023-03-26T22:07:18.182Z,7.60
2023-03-26T22:09:45.464Z,7.50
2023-03-26T22:12:12.623Z,7.80
2023-03-26T22:14:40.496Z,7.50
2023-03-26T22:17:07.633Z,7.50
2023-03-26T22:19:34.780Z,7.40
2023-03-26T22:22:02.078Z,7.50
2023-03-26T22:24:29.266Z,7.50
2023-03-26T22:26:56.512Z,7.80
2023-03-26T22:29:23.618Z,7.50
2023-03-26T22:31:51.110Z,7.30
2023-03-26T22:34:19.529Z,7.60
2023-03-26T22:36:46.648Z,7.60
2023-03-26T22:39:13.757Z,7.80
2023-03-26T22:41:40.892Z,7.30
2023-03-26T22:44:19.216Z,7.40
2023-03-26T22:46:49.293Z,7.50
2023-03-26T22:49:17.242Z,7.70
2023-03-26T22:51:44.571Z,7.70
2023-03-26T22:54:11.765Z,7.50
2023-03-26T22:56:41.641Z,7.40
2023-03-26T22:59:13.988Z,7.60
2023-03-26T23:01:44.907Z,7.30
2023-03-26T23:04:31.210Z,7.80
2023-03-26T23:07:02.327Z,7.40
2023-03-26T23:09:29.638Z,7.40
2023-03-26T23:12:00.520Z,7.40
2023-03-26T23:14:28.693Z,7.20
2023-03-26T23:16:55.806Z,7.10
2023-03-26T23:19:24.818Z,7.40
2023-03-26T23:21:52.343Z,7.30
2023-03-26T23:24:19.716Z,7.60
2023-03-26T23:29:17.347Z,7.40
2023-03-26T23:31:44.532Z,7.30
2023-03-26T23:34:13.447Z,7.30
2023-03-26T23:36:41.834Z,7.30
2023-03-26T23:39:09.297Z,7.40
2023-03-26T23:41:36.777Z,7.30
2023-03-26T23:44:03.998Z,7.40
2023-03-26T23:46:34.514Z,7.60
2023-03-26T23:49:04.888Z,8.00
2023-03-26T23:51:32.156Z,8.90
2023-03-26T23:54:00.066Z,9.00
2023-03-26T23:56:30.385Z,8.90
2023-03-26T23:58:58.128Z,8.50
